Time;durP1;ratioP1;P1;durP2;ratioP2;P2;SDS_P1;SDS_P2;PMS_P1;PMS_P2;Temp;Humidity;BMP_temperature;BMP_pressure;BME280_temperature;BME280_humidity;BME280_pressure;Samples;Min_cycle;Max_cycle;Signal;HPM_P1;HPM_P2
2021/12/13 00:02:51;;;;;;;10.07;2.07;;;12.40;99.90;;;;;;5010958;28;20660;-65
2021/12/13 00:05:23;;;;;;;15.50;2.07;;;12.40;99.90;;;;;;5010867;28;20630;-65
2021/12/13 00:08:00;;;;;;;21.00;2.57;;;12.40;99.90;;;;;;5011179;28;20751;-65
2021/12/13 00:10:42;;;;;;;12.17;1.77;;;12.40;99.90;;;;;;5011179;28;20668;-65
2021/12/13 00:13:14;;;;;;;15.47;2.30;;;12.40;99.90;;;;;;5010814;28;20703;-65
2021/12/13 00:15:53;;;;;;;19.87;2.30;;;12.50;99.90;;;;;;5011036;28;20175;-65
2021/12/13 00:18:27;;;;;;;14.73;2.10;;;12.40;99.90;;;;;;5010815;28;20265;-65
2021/12/13 00:21:07;;;;;;;14.43;2.33;;;12.40;99.90;;;;;;5011083;28;20213;-66
2021/12/13 00:23:49;;;;;;;19.70;2.73;;;12.40;99.90;;;;;;5010849;28;20170;-63
2021/12/13 00:26:28;;;;;;;11.33;1.77;;;12.40;99.90;;;;;;5010800;28;20248;-64
2021/12/13 00:28:55;;;;;;;17.20;1.80;;;12.40;99.90;;;;;;5014123;28;20167;-64
2021/12/13 00:31:29;;;;;;;11.43;1.73;;;12.40;99.90;;;;;;5014357;28;20187;-64
2021/12/13 00:34:08;;;;;;;14.83;2.10;;;12.30;99.90;;;;;;5014523;28;20300;-63
2021/12/13 00:36:40;;;;;;;13.47;2.13;;;12.40;99.90;;;;;;5014627;28;20193;-63
2021/12/13 00:39:33;;;;;;;15.33;1.73;;;12.40;99.90;;;;;;5014026;28;20201;-63
2021/12/13 00:42:03;;;;;;;10.07;1.27;;;12.40;99.90;;;;;;5014042;28;20183;-63
2021/12/13 00:44:59;;;;;;;10.83;1.47;;;12.40;99.90;;;;;;5014050;28;20205;-64
2021/12/13 00:47:30;;;;;;;14.57;1.80;;;12.40;99.90;;;;;;5014185;28;20254;-62
2021/12/13 00:50:42;;;;;;;13.23;1.80;;;12.40;99.90;;;;;;5014247;28;20700;-64
2021/12/13 00:53:09;;;;;;;9.53;1.47;;;12.50;99.90;;;;;;5011768;28;20224;-63
2021/12/13 00:55:37;;;;;;;13.20;1.60;;;12.50;99.90;;;;;;5014487;28;20163;-63
2021/12/13 00:58:13;;;;;;;4.63;1.10;;;12.50;99.90;;;;;;5014500;28;20179;-63
2021/12/13 01:00:47;;;;;;;8.40;1.50;;;12.50;99.90;;;;;;5014289;28;20170;-63
2021/12/13 01:03:24;;;;;;;6.33;1.30;;;12.60;99.90;;;;;;5013827;28;20703;-63
2021/12/13 01:06:26;;;;;;;18.27;2.77;;;12.50;99.90;;;;;;5013450;28;20178;-64
2021/12/13 01:09:29;;;;;;;7.10;1.07;;;12.50;99.90;;;;;;5013883;28;20257;-63
2021/12/13 01:11:59;;;;;;;13.47;1.50;;;12.40;99.90;;;;;;4994390;28;20174;-64
2021/12/13 01:14:30;;;;;;;13.70;1.63;;;12.40;99.90;;;;;;4994443;28;20170;-64
2021/12/13 01:17:05;;;;;;;11.97;1.43;;;12.40;99.90;;;;;;5004146;28;20183;-65
2021/12/13 01:19:56;;;;;;;9.67;1.40;;;12.30;99.90;;;;;;5013686;28;20170;-64
2021/12/13 01:22:50;;;;;;;9.40;1.33;;;12.30;99.90;;;;;;5010376;28;20178;-64
2021/12/13 01:28:32;;;;;;;12.63;1.77;;;12.20;99.90;;;;;;5013982;28;20236;-64
2021/12/13 01:31:09;;;;;;;12.10;1.30;;;12.20;99.90;;;;;;5013603;28;20179;-63
2021/12/13 01:33:39;;;;;;;10.33;1.60;;;12.20;99.90;;;;;;5013151;28;20229;-63
2021/12/13 01:36:06;;;;;;;7.70;1.50;;;12.40;99.90;;;;;;5013612;28;20171;-63
2021/12/13 01:38:38;;;;;;;12.23;1.47;;;12.40;99.90;;;;;;5013529;28;20205;-64
2021/12/13 01:41:18;;;;;;;11.57;2.03;;;12.30;99.90;;;;;;5013001;28;20688;-63
2021/12/13 01:43:51;;;;;;;15.67;1.70;;;12.30;99.90;;;;;;5013270;28;20557;-63
2021/12/13 01:46:20;;;;;;;11.00;1.30;;;12.40;99.90;;;;;;5013576;28;20361;-63
2021/12/13 01:48:47;;;;;;;16.83;2.03;;;12.40;99.90;;;;;;5012061;28;20183;-63
2021/12/13 01:51:16;;;;;;;16.03;1.87;;;12.40;99.90;;;;;;5012687;28;20242;-63
2021/12/13 01:54:05;;;;;;;10.83;1.30;;;12.50;99.90;;;;;;5012724;28;20238;-63
2021/12/13 01:57:09;;;;;;;6.13;0.83;;;12.50;99.90;;;;;;5012961;28;20178;-63
2021/12/13 01:59:48;;;;;;;4.80;1.20;;;12.50;99.90;;;;;;5012914;28;20271;-63
2021/12/13 02:02:20;;;;;;;5.97;1.43;;;12.50;99.90;;;;;;5012777;28;20170;-63
2021/12/13 02:05:06;;;;;;;5.97;0.90;;;12.50;99.90;;;;;;5012368;28;20179;-63
2021/12/13 02:07:55;;;;;;;9.03;1.50;;;12.50;99.90;;;;;;5013087;28;20217;-62
2021/12/13 02:10:29;;;;;;;15.40;1.30;;;12.50;99.90;;;;;;5004005;28;20183;-62
2021/12/13 02:13:03;;;;;;;7.57;1.40;;;12.50;99.90;;;;;;5012252;28;20206;-62
2021/12/13 02:18:22;;;;;;;10.10;1.43;;;12.50;99.90;;;;;;5012765;28;20186;-62
2021/12/13 02:21:02;;;;;;;10.70;1.10;;;12.50;99.90;;;;;;5012720;28;20194;-62
2021/12/13 02:23:28;;;;;;;10.90;1.47;;;12.50;99.90;;;;;;5012430;28;20248;-62
2021/12/13 02:25:57;;;;;;;6.17;1.00;;;12.50;99.90;;;;;;5012674;28;20174;-61
2021/12/13 02:28:27;;;;;;;6.90;1.10;;;12.50;99.90;;;;;;5012390;28;20178;-63
2021/12/13 02:31:01;;;;;;;10.97;1.57;;;12.50;99.90;;;;;;5012593;28;20167;-65
2021/12/13 02:33:29;;;;;;;11.50;1.50;;;12.50;99.90;;;;;;5012047;28;20209;-65
2021/12/13 02:36:08;;;;;;;14.27;1.63;;;12.60;99.90;;;;;;5012452;28;20270;-65
2021/12/13 02:38:35;;;;;;;10.70;1.30;;;12.60;99.90;;;;;;5012316;28;20178;-65
2021/12/13 02:41:04;;;;;;;9.70;1.47;;;12.60;99.90;;;;;;5012355;28;20178;-64
2021/12/13 02:43:39;;;;;;;11.07;1.60;;;12.60;99.90;;;;;;5012130;28;20183;-65
2021/12/13 02:46:05;;;;;;;11.60;1.00;;;12.60;99.90;;;;;;5012270;28;20178;-65
2021/12/13 02:48:37;;;;;;;12.03;1.40;;;12.50;99.90;;;;;;5011914;28;20174;-65
2021/12/13 02:51:32;;;;;;;6.67;1.20;;;12.50;99.90;;;;;;5011569;28;20301;-65
2021/12/13 02:54:05;;;;;;;8.80;1.50;;;12.50;99.90;;;;;;4994426;28;20217;-64
2021/12/13 02:56:39;;;;;;;10.83;1.40;;;12.50;99.90;;;;;;5011858;28;20170;-64
2021/12/13 02:59:07;;;;;;;14.43;1.50;;;12.60;99.90;;;;;;5011812;28;20195;-64
2021/12/13 03:02:11;;;;;;;12.97;1.83;;;12.50;99.90;;;;;;5011558;28;20202;-64
2021/12/13 03:04:37;;;;;;;12.73;1.70;;;12.50;99.90;;;;;;5011458;28;20179;-65
2021/12/13 03:07:20;;;;;;;9.77;1.90;;;12.50;99.90;;;;;;5011686;28;20191;-65
2021/12/13 03:09:52;;;;;;;5.30;1.40;;;12.50;99.90;;;;;;5011981;28;20171;-64
2021/12/13 03:12:19;;;;;;;12.63;1.43;;;12.50;99.90;;;;;;5011409;28;20220;-64
2021/12/13 03:14:52;;;;;;;7.47;1.87;;;12.50;99.90;;;;;;5012158;28;20277;-63
2021/12/13 03:17:26;;;;;;;11.00;1.40;;;12.60;99.90;;;;;;5011677;28;20634;-63
2021/12/13 03:20:00;;;;;;;11.00;1.23;;;12.60;99.90;;;;;;5011705;28;20167;-63
2021/12/13 03:22:41;;;;;;;5.50;1.37;;;12.50;99.90;;;;;;4992197;28;20257;-64
2021/12/13 03:25:44;;;;;;;16.13;1.63;;;12.50;99.90;;;;;;4998846;28;20653;-64
2021/12/13 03:28:36;;;;;;;12.63;1.67;;;12.50;99.90;;;;;;5011614;28;20636;-64
2021/12/13 03:31:12;;;;;;;10.03;1.50;;;12.60;99.90;;;;;;5011428;28;20186;-64
2021/12/13 03:34:00;;;;;;;12.23;1.73;;;12.60;99.90;;;;;;5011416;28;20206;-64
2021/12/13 03:37:01;;;;;;;21.20;2.10;;;12.60;99.90;;;;;;5011334;28;20655;-64
2021/12/13 03:39:29;;;;;;;12.37;1.83;;;12.50;99.90;;;;;;5006901;28;20218;-64
2021/12/13 03:41:57;;;;;;;15.30;1.97;;;12.50;99.90;;;;;;5011136;28;20171;-64
2021/12/13 03:44:48;;;;;;;15.13;2.00;;;12.50;99.90;;;;;;5011238;28;20237;-64
2021/12/13 03:47:30;;;;;;;18.90;2.00;;;12.50;99.90;;;;;;5010877;28;20182;-64
2021/12/13 03:49:59;;;;;;;12.47;2.13;;;12.50;99.90;;;;;;5011105;28;20185;-64
2021/12/13 03:52:29;;;;;;;10.37;1.70;;;12.40;99.90;;;;;;5011254;28;20241;-64
2021/12/13 03:54:59;;;;;;;9.43;1.20;;;12.40;99.90;;;;;;5011221;28;20167;-63
2021/12/13 03:57:26;;;;;;;12.40;1.60;;;12.40;99.90;;;;;;5011165;28;20174;-63
2021/12/13 03:59:52;;;;;;;10.80;1.80;;;12.40;99.90;;;;;;5010876;28;20174;-63
2021/12/13 04:02:30;;;;;;;8.60;1.43;;;12.40;99.90;;;;;;5010214;28;20166;-63
2021/12/13 04:05:00;;;;;;;9.03;1.47;;;12.40;99.90;;;;;;5011161;28;20178;-63
2021/12/13 04:07:59;;;;;;;9.60;1.60;;;12.50;99.90;;;;;;5010727;28;20240;-64
2021/12/13 04:10:32;;;;;;;14.47;1.60;;;12.50;99.90;;;;;;5011130;28;20202;-63
2021/12/13 04:13:08;;;;;;;10.37;1.13;;;12.50;99.90;;;;;;5010829;28;20238;-64
2021/12/13 04:21:27;;;;;;;11.87;1.77;;;12.60;99.90;;;;;;4991349;28;20195;-63
2021/12/13 04:23:57;;;;;;;10.43;1.70;;;12.60;99.90;;;;;;4991352;28;20171;-63
2021/12/13 04:26:24;;;;;;;16.00;1.30;;;12.60;99.90;;;;;;5008123;28;20642;-63
2021/12/13 04:28:53;;;;;;;11.97;1.53;;;12.60;99.90;;;;;;5010966;28;20183;-63
2021/12/13 04:31:23;;;;;;;9.77;1.90;;;12.60;99.90;;;;;;5010666;28;20201;-63
2021/12/13 04:33:56;;;;;;;9.40;1.50;;;12.60;99.90;;;;;;5010472;28;20596;-62
2021/12/13 04:36:27;;;;;;;9.57;1.40;;;12.60;99.90;;;;;;5008802;28;20637;-61
2021/12/13 04:39:01;;;;;;;11.67;1.37;;;12.60;99.90;;;;;;5010842;28;20224;-63
2021/12/13 04:41:44;;;;;;;8.13;1.10;;;12.60;99.90;;;;;;5010872;28;20167;-63
2021/12/13 04:44:22;;;;;;;9.63;1.37;;;12.60;99.90;;;;;;5010628;28;20174;-63
2021/12/13 04:46:52;;;;;;;16.03;1.33;;;12.60;99.90;;;;;;5010864;28;20261;-63
2021/12/13 04:49:21;;;;;;;7.53;1.40;;;12.60;99.90;;;;;;5010945;28;20179;-63
2021/12/13 04:51:57;;;;;;;11.07;1.47;;;12.60;99.90;;;;;;5010419;28;20225;-63
2021/12/13 04:54:26;;;;;;;8.03;1.50;;;12.60;99.90;;;;;;5010319;28;20695;-63
2021/12/13 04:56:53;;;;;;;7.03;1.37;;;12.60;99.90;;;;;;5010733;28;20170;-63
2021/12/13 04:59:21;;;;;;;12.77;1.77;;;12.50;99.90;;;;;;5010572;28;20171;-63
2021/12/13 05:01:53;;;;;;;7.90;1.73;;;12.60;99.90;;;;;;5010592;28;20179;-63
2021/12/13 05:04:21;;;;;;;8.00;1.17;;;12.60;99.90;;;;;;5010464;28;20256;-63
2021/12/13 05:06:50;;;;;;;12.10;1.80;;;12.60;99.90;;;;;;5010375;28;20179;-63
2021/12/13 05:09:18;;;;;;;10.33;1.33;;;12.50;99.90;;;;;;5010370;28;20230;-64
2021/12/13 05:11:54;;;;;;;6.40;1.47;;;12.50;99.90;;;;;;5010284;28;20270;-65
2021/12/13 05:14:39;;;;;;;15.57;1.40;;;12.50;99.90;;;;;;5012679;28;20264;-64
2021/12/13 05:17:15;;;;;;;9.90;1.30;;;12.60;99.90;;;;;;5013701;28;20256;-65
2021/12/13 05:19:46;;;;;;;7.10;1.27;;;12.60;99.90;;;;;;5013793;28;20178;-65
2021/12/13 05:22:15;;;;;;;10.83;1.13;;;12.60;99.90;;;;;;5013732;28;20629;-64
2021/12/13 05:24:53;;;;;;;11.97;1.27;;;12.50;99.90;;;;;;5013700;28;20170;-65
2021/12/13 05:27:30;;;;;;;12.17;1.83;;;12.60;99.90;;;;;;5013503;28;20633;-65
2021/12/13 05:30:25;;;;;;;7.80;1.23;;;12.50;99.90;;;;;;5013628;28;20260;-65
2021/12/13 05:32:56;;;;;;;12.23;1.30;;;12.60;99.90;;;;;;5001060;28;20302;-65
2021/12/13 05:35:46;;;;;;;7.17;1.23;;;12.60;99.90;;;;;;5013700;28;20174;-65
2021/12/13 05:38:33;;;;;;;11.97;1.80;;;12.50;99.90;;;;;;5013482;28;20637;-65
2021/12/13 05:41:02;;;;;;;12.37;1.73;;;12.50;99.90;;;;;;5007388;28;20178;-65
2021/12/13 05:43:38;;;;;;;5.40;1.20;;;12.50;99.90;;;;;;5013282;28;20185;-64
2021/12/13 05:46:07;;;;;;;6.60;1.33;;;12.50;99.90;;;;;;5013170;28;20174;-64
2021/12/13 05:48:47;;;;;;;6.87;1.03;;;12.50;99.90;;;;;;5012731;28;20189;-64
2021/12/13 05:51:26;;;;;;;8.60;1.27;;;11.60;99.90;;;;;;5012812;28;20214;-64
2021/12/13 05:53:58;;;;;;;9.07;1.33;;;12.40;99.90;;;;;;5013273;28;20210;-65
2021/12/13 05:56:28;;;;;;;9.10;1.57;;;12.40;99.90;;;;;;5012826;28;20224;-64
2021/12/13 05:59:08;;;;;;;8.27;1.10;;;12.40;99.90;;;;;;5012863;28;20177;-64
2021/12/13 06:02:03;;;;;;;9.40;1.53;;;12.40;99.90;;;;;;5012809;28;20181;-65
2021/12/13 06:04:47;;;;;;;8.77;1.23;;;12.40;99.90;;;;;;5012449;28;20191;-65
2021/12/13 06:07:27;;;;;;;6.63;1.00;;;12.40;99.90;;;;;;5013042;28;20182;-66
2021/12/13 06:10:02;;;;;;;10.80;1.53;;;12.40;99.90;;;;;;5012946;28;20163;-64
2021/12/13 06:12:51;;;;;;;5.33;1.13;;;12.30;99.90;;;;;;5012755;28;20280;-63
2021/12/13 06:15:17;;;;;;;4.87;1.00;;;12.30;99.90;;;;;;5012908;28;20548;-63
2021/12/13 06:17:53;;;;;;;10.03;1.40;;;12.30;99.90;;;;;;5012389;28;20170;-63
2021/12/13 06:20:34;;;;;;;7.20;0.93;;;12.30;99.90;;;;;;5012674;28;20170;-63
2021/12/13 06:23:20;;;;;;;15.07;1.23;;;12.20;99.90;;;;;;5012745;28;20197;-63
2021/12/13 06:25:48;;;;;;;10.83;1.27;;;12.20;99.90;;;;;;5011838;28;20652;-63
2021/12/13 06:28:28;;;;;;;5.33;0.70;;;12.20;99.90;;;;;;5012399;28;20269;-63
2021/12/13 06:31:13;;;;;;;9.50;1.50;;;12.30;99.90;;;;;;5012582;28;20174;-63
2021/12/13 06:33:55;;;;;;;12.27;2.27;;;12.30;99.90;;;;;;5012481;28;20685;-62
2021/12/13 06:36:38;;;;;;;7.90;1.40;;;12.20;99.90;;;;;;5012380;28;20171;-63
2021/12/13 06:39:17;;;;;;;6.97;2.40;;;12.20;99.90;;;;;;5012398;28;20182;-63
2021/12/13 06:41:51;;;;;;;9.07;1.10;;;12.20;99.90;;;;;;5012071;28;20197;-63
2021/12/13 06:44:21;;;;;;;7.77;1.23;;;12.20;99.90;;;;;;5012256;28;20653;-63
2021/12/13 06:46:59;;;;;;;8.73;1.20;;;12.10;99.90;;;;;;5012402;28;20241;-63
2021/12/13 06:49:34;;;;;;;7.67;1.47;;;12.20;99.90;;;;;;5012371;28;20305;-63
2021/12/13 06:52:08;;;;;;;13.87;1.47;;;12.20;99.90;;;;;;5011982;28;20210;-63
2021/12/13 06:54:39;;;;;;;8.30;1.70;;;12.10;99.90;;;;;;5012143;28;20186;-66
2021/12/13 06:57:15;;;;;;;8.13;1.60;;;12.10;99.90;;;;;;5012098;28;20205;-67
2021/12/13 06:59:52;;;;;;;15.20;1.47;;;12.10;99.90;;;;;;5011744;28;20193;-67
2021/12/13 07:02:25;;;;;;;9.83;1.37;;;12.10;99.90;;;;;;5011697;28;20264;-67
2021/12/13 07:04:54;;;;;;;8.03;1.50;;;12.10;99.90;;;;;;5011819;28;20182;-67
2021/12/13 07:07:24;;;;;;;7.77;1.60;;;12.10;99.90;;;;;;5011932;28;20193;-66
2021/12/13 07:09:56;;;;;;;7.40;1.00;;;12.10;99.90;;;;;;5011126;28;20178;-67
2021/12/13 07:12:24;;;;;;;6.97;1.27;;;12.10;99.90;;;;;;5011732;28;20650;-67
2021/12/13 07:14:51;;;;;;;4.77;1.23;;;12.10;99.90;;;;;;5011977;28;20194;-65
2021/12/13 07:17:37;;;;;;;8.10;1.77;;;12.00;99.90;;;;;;5011624;28;20388;-65
2021/12/13 07:20:14;;;;;;;5.27;1.33;;;12.00;99.90;;;;;;5011775;28;20186;-65
2021/12/13 07:22:43;;;;;;;6.23;1.20;;;12.00;99.90;;;;;;5011032;28;20182;-64
2021/12/13 07:25:15;;;;;;;9.53;1.43;;;12.00;99.90;;;;;;5011373;28;20183;-62
2021/12/13 07:27:46;;;;;;;7.67;1.37;;;11.90;99.90;;;;;;5011258;28;20187;-62
2021/12/13 07:30:26;;;;;;;7.30;1.10;;;11.90;99.90;;;;;;5011322;28;20181;-62
2021/12/13 07:32:57;;;;;;;10.43;1.73;;;11.90;99.90;;;;;;5011343;28;20299;-62
2021/12/13 07:35:38;;;;;;;6.40;1.40;;;11.90;99.90;;;;;;5011634;28;20179;-62
2021/12/13 07:38:18;;;;;;;8.53;1.60;;;11.80;99.90;;;;;;5011264;28;20267;-62
2021/12/13 07:40:56;;;;;;;7.37;1.07;;;11.80;99.90;;;;;;5011200;28;20178;-62
2021/12/13 07:43:31;;;;;;;6.43;1.13;;;11.80;99.90;;;;;;5010986;28;20633;-63
2021/12/13 07:45:59;;;;;;;4.70;1.10;;;11.80;99.90;;;;;;5011274;28;20185;-62
2021/12/13 07:48:50;;;;;;;8.97;1.10;;;11.90;99.90;;;;;;5011172;28;20171;-62
2021/12/13 07:51:16;;;;;;;7.80;1.20;;;11.80;99.90;;;;;;5029478;28;20226;-62
2021/12/13 07:53:50;;;;;;;8.23;1.30;;;11.80;99.90;;;;;;5010887;28;20210;-62
2021/12/13 07:56:33;;;;;;;7.27;1.10;;;11.80;99.90;;;;;;5011083;28;20189;-62
2021/12/13 07:59:04;;;;;;;10.53;1.33;;;11.80;99.90;;;;;;5010924;28;20178;-62
2021/12/13 08:01:34;;;;;;;7.43;1.30;;;11.80;99.90;;;;;;5009853;28;20201;-74
2021/12/13 08:04:10;;;;;;;5.77;1.00;;;11.80;99.90;;;;;;5010722;28;20511;-73
2021/12/13 08:06:57;;;;;;;6.30;1.30;;;11.80;99.90;;;;;;5010000;28;20190;-73
2021/12/13 08:09:27;;;;;;;7.27;0.97;;;11.70;99.90;;;;;;5010962;28;20177;-74
2021/12/13 08:11:58;;;;;;;4.70;1.03;;;11.80;99.90;;;;;;5011030;28;20174;-72
2021/12/13 08:14:33;;;;;;;12.23;1.50;;;11.70;99.90;;;;;;5009708;28;20308;-73
2021/12/13 08:17:20;;;;;;;4.57;0.90;;;11.70;99.90;;;;;;5014201;28;20167;-75
2021/12/13 08:20:00;;;;;;;4.93;1.10;;;11.70;99.90;;;;;;5010339;28;20185;-74
2021/12/13 08:22:29;;;;;;;7.53;1.00;;;11.70;99.90;;;;;;5009490;28;20200;-72
2021/12/13 08:25:09;;;;;;;2.83;0.90;;;11.80;99.90;;;;;;5010531;28;20202;-67
2021/12/13 08:27:43;;;;;;;4.93;0.97;;;11.80;99.90;;;;;;5010584;28;20170;-67
2021/12/13 08:30:14;;;;;;;7.30;1.10;;;11.80;99.90;;;;;;5010400;28;20178;-67
2021/12/13 08:33:01;;;;;;;7.20;1.33;;;11.80;99.90;;;;;;5010694;28;20202;-70
2021/12/13 08:35:44;;;;;;;5.37;1.30;;;11.80;99.90;;;;;;5010729;28;20261;-69
2021/12/13 08:38:10;;;;;;;7.17;1.20;;;11.80;99.90;;;;;;5010182;28;20645;-69
2021/12/13 08:40:36;;;;;;;7.47;1.00;;;11.80;99.90;;;;;;5010645;28;20700;-69
2021/12/13 08:43:02;;;;;;;4.37;1.30;;;11.80;99.90;;;;;;4992917;28;20183;-70
2021/12/13 08:45:38;;;;;;;8.17;1.20;;;11.90;99.90;;;;;;5010329;28;20166;-70
2021/12/13 08:48:09;;;;;;;6.53;1.23;;;11.90;99.90;;;;;;5010768;28;20171;-71
2021/12/13 08:50:41;;;;;;;6.13;1.00;;;11.90;99.90;;;;;;5014232;28;20229;-69
2021/12/13 08:53:24;;;;;;;5.90;1.30;;;11.90;99.90;;;;;;5014148;28;20358;-69
2021/12/13 08:56:07;;;;;;;6.87;1.20;;;11.90;99.90;;;;;;5013998;28;20166;-69
2021/12/13 08:58:34;;;;;;;4.27;1.03;;;11.90;99.90;;;;;;5013990;28;20190;-69
2021/12/13 09:01:09;;;;;;;12.87;1.37;;;12.00;99.90;;;;;;5014046;28;20175;-68
2021/12/13 09:03:52;;;;;;;9.87;1.07;;;12.00;99.90;;;;;;5013780;28;20197;-71
2021/12/13 09:06:17;;;;;;;6.70;1.20;;;12.00;99.90;;;;;;5013714;28;20167;-70
2021/12/13 09:08:43;;;;;;;5.47;1.00;;;12.10;99.90;;;;;;5013939;28;20592;-69
2021/12/13 09:11:31;;;;;;;9.27;1.40;;;12.10;99.90;;;;;;5014045;28;20175;-70
2021/12/13 09:14:08;;;;;;;10.90;1.40;;;12.10;99.90;;;;;;5013738;28;20202;-72
2021/12/13 09:17:10;;;;;;;6.00;1.00;;;12.10;99.90;;;;;;5013756;28;20182;-73
2021/12/13 09:19:50;;;;;;;4.03;1.23;;;12.10;99.90;;;;;;4996150;28;20245;-74
2021/12/13 09:22:31;;;;;;;6.53;1.40;;;12.10;99.90;;;;;;5005017;28;20249;-75
2021/12/13 09:25:18;;;;;;;7.27;1.23;;;12.20;99.90;;;;;;5012359;28;20178;-75
2021/12/13 09:28:08;;;;;;;3.10;0.90;;;12.10;99.90;;;;;;5013679;28;20174;-72
2021/12/13 09:30:45;;;;;;;7.37;1.00;;;12.20;99.90;;;;;;5013272;28;20186;-72
2021/12/13 09:33:19;;;;;;;6.57;1.20;;;12.20;99.90;;;;;;5013004;28;20214;-76
2021/12/13 09:35:52;;;;;;;6.53;1.47;;;12.20;99.90;;;;;;5008314;28;20807;-75
2021/12/13 09:38:20;;;;;;;5.53;1.30;;;12.30;99.90;;;;;;4993512;28;20711;-75
2021/12/13 09:41:12;;;;;;;6.97;1.33;;;12.30;99.90;;;;;;5010186;28;20206;-70
2021/12/13 09:43:45;;;;;;;7.63;1.27;;;12.30;99.90;;;;;;5002248;28;20241;-68
2021/12/13 09:46:14;;;;;;;5.73;1.30;;;12.30;99.90;;;;;;5013080;28;20167;-70
2021/12/13 09:48:49;;;;;;;3.57;0.83;;;12.20;99.90;;;;;;5012872;28;20537;-64
2021/12/13 09:51:24;;;;;;;3.90;1.23;;;12.20;99.90;;;;;;5013229;28;20225;-67
2021/12/13 09:53:56;;;;;;;6.00;1.50;;;12.20;99.90;;;;;;5012813;28;20201;-67
2021/12/13 09:56:28;;;;;;;3.90;1.00;;;12.90;99.90;;;;;;5013199;28;20221;-67
2021/12/13 09:58:59;;;;;;;6.37;1.20;;;12.10;99.90;;;;;;5012863;28;20220;-71
2021/12/13 10:01:35;;;;;;;10.53;1.30;;;12.10;99.90;;;;;;4994155;28;20175;-70
2021/12/13 10:04:10;;;;;;;7.33;1.33;;;12.10;99.90;;;;;;5011482;28;20182;-69
2021/12/13 10:06:44;;;;;;;7.20;1.40;;;12.10;99.90;;;;;;5012297;28;20197;-70
2021/12/13 10:09:38;;;;;;;5.57;0.70;;;12.20;99.90;;;;;;5011845;28;20223;-70
2021/12/13 10:12:07;;;;;;;3.77;1.20;;;12.20;99.90;;;;;;5003495;28;20201;-70
2021/12/13 10:14:38;;;;;;;4.63;1.00;;;12.30;99.90;;;;;;5011478;28;20237;-69
2021/12/13 10:17:06;;;;;;;4.00;0.77;;;12.30;99.90;;;;;;5011873;28;20206;-70
2021/12/13 10:19:39;;;;;;;4.47;0.60;;;12.40;99.90;;;;;;5010553;28;20171;-70
2021/12/13 10:22:07;;;;;;;3.37;0.63;;;12.40;99.90;;;;;;5012019;28;20608;-70
2021/12/13 10:24:43;;;;;;;5.30;1.00;;;12.30;99.90;;;;;;5012114;28;20163;-71
2021/12/13 10:27:12;;;;;;;3.30;0.77;;;12.30;99.90;;;;;;5003165;28;20187;-68
2021/12/13 10:29:41;;;;;;;4.50;0.63;;;12.20;99.90;;;;;;4992954;28;20233;-69
2021/12/13 10:32:13;;;;;;;6.67;0.83;;;12.20;99.90;;;;;;5003686;28;20649;-70
2021/12/13 10:34:46;;;;;;;1.70;0.70;;;12.20;99.90;;;;;;4992390;28;20193;-69
2021/12/13 10:37:26;;;;;;;1.13;0.60;;;12.20;99.90;;;;;;4992268;28;20178;-69
2021/12/13 10:40:35;;;;;;;3.53;0.57;;;12.10;99.90;;;;;;4992893;28;20177;-70
2021/12/13 10:43:06;;;;;;;0.90;0.50;;;12.10;99.90;;;;;;4951610;29;20177;-71
2021/12/13 10:45:39;;;;;;;2.53;0.50;;;12.10;99.90;;;;;;4985104;28;20342;-68
2021/12/13 10:48:07;;;;;;;3.47;0.60;;;12.00;99.90;;;;;;4992687;28;20171;-70
2021/12/13 10:50:38;;;;;;;2.90;0.50;;;12.00;99.90;;;;;;4992224;28;20224;-70
2021/12/13 10:53:08;;;;;;;1.63;0.60;;;12.10;99.90;;;;;;4992068;28;20206;-68
2021/12/13 10:55:44;;;;;;;2.37;0.43;;;12.20;99.90;;;;;;4992510;28;20167;-69
2021/12/13 10:58:13;;;;;;;3.73;0.87;;;12.30;99.90;;;;;;4992558;28;20261;-70
2021/12/13 11:00:44;;;;;;;2.93;0.57;;;12.40;99.90;;;;;;4992516;28;20167;-68
2021/12/13 11:03:16;;;;;;;2.13;0.60;;;12.40;99.90;;;;;;4992466;28;20178;-70
2021/12/13 11:05:43;;;;;;;1.60;0.43;;;12.40;99.90;;;;;;4992166;28;20175;-69
2021/12/13 11:08:13;;;;;;;3.30;0.80;;;12.50;99.90;;;;;;4992280;28;20211;-69
2021/12/13 11:10:50;;;;;;;2.17;0.40;;;12.50;99.90;;;;;;4991764;28;20237;-68
2021/12/13 11:13:17;;;;;;;1.40;0.57;;;12.50;99.90;;;;;;4991678;28;20210;-67
2021/12/13 11:15:47;;;;;;;2.97;0.70;;;12.50;99.90;;;;;;4990148;28;20238;-68
2021/12/13 11:18:26;;;;;;;5.20;0.73;;;12.60;99.90;;;;;;4990163;28;20183;-68
2021/12/13 11:20:52;;;;;;;3.23;0.93;;;12.60;99.90;;;;;;4990108;28;20703;-69
2021/12/13 11:23:20;;;;;;;3.00;0.60;;;12.60;99.90;;;;;;4990483;28;20270;-68
2021/12/13 11:26:00;;;;;;;5.00;1.03;;;12.70;99.90;;;;;;4990085;28;20723;-68
2021/12/13 11:28:29;;;;;;;3.73;0.80;;;12.70;99.90;;;;;;4989937;28;20177;-69
2021/12/13 11:30:56;;;;;;;1.87;1.00;;;12.80;99.90;;;;;;4991623;28;20185;-67
2021/12/13 11:34:00;;;;;;;4.57;0.67;;;12.90;99.90;;;;;;4989940;28;20214;-67
2021/12/13 11:36:45;;;;;;;2.20;0.50;;;12.80;99.90;;;;;;4978044;28;20178;-67
2021/12/13 11:39:40;;;;;;;2.67;0.87;;;12.80;99.90;;;;;;4989938;28;20294;-67
2021/12/13 11:42:25;;;;;;;3.43;1.00;;;13.00;99.90;;;;;;4989715;28;20178;-67
2021/12/13 11:45:29;;;;;;;2.57;0.90;;;13.00;99.90;;;;;;4989710;28;20258;-67
2021/12/13 11:48:16;;;;;;;2.43;0.60;;;12.90;99.90;;;;;;4983898;28;20225;-67
2021/12/13 11:51:23;;;;;;;1.30;0.70;;;12.70;99.90;;;;;;4991483;28;20218;-67
2021/12/13 11:54:23;;;;;;;4.40;0.70;;;12.60;99.90;;;;;;4990235;28;20241;-67
2021/12/13 11:57:22;;;;;;;2.10;0.60;;;12.70;99.90;;;;;;4991566;28;20225;-69
2021/12/13 12:00:15;;;;;;;6.30;0.63;;;12.90;99.90;;;;;;4991520;28;20179;-68
2021/12/13 12:03:08;;;;;;;5.63;0.80;;;13.10;99.90;;;;;;4991496;28;20172;-67
2021/12/13 12:06:00;;;;;;;1.70;0.37;;;12.90;99.90;;;;;;4991436;28;20229;-67
2021/12/13 12:09:03;;;;;;;2.57;0.70;;;12.70;99.90;;;;;;4991508;28;20207;-67
2021/12/13 12:12:06;;;;;;;3.20;0.40;;;12.60;99.90;;;;;;4991267;28;20175;-67
2021/12/13 12:14:33;;;;;;;4.43;0.60;;;12.60;99.90;;;;;;4989855;28;20225;-68
2021/12/13 12:17:01;;;;;;;2.07;0.50;;;12.60;99.90;;;;;;4991230;28;20622;-68
2021/12/13 12:19:41;;;;;;;3.10;0.50;;;12.50;99.90;;;;;;4991479;28;20190;-68
2021/12/13 12:22:18;;;;;;;2.37;0.50;;;12.50;99.90;;;;;;4991770;28;20230;-68
2021/12/13 12:24:56;;;;;;;2.90;0.50;;;12.40;99.90;;;;;;4994598;28;20186;-68
2021/12/13 12:27:26;;;;;;;3.00;0.93;;;12.40;99.90;;;;;;4995465;28;20179;-67
2021/12/13 12:29:56;;;;;;;2.53;0.83;;;12.30;99.90;;;;;;4995338;28;20660;-68
2021/12/13 12:32:39;;;;;;;2.30;0.63;;;12.30;99.90;;;;;;4977652;28;20237;-68
2021/12/13 12:35:15;;;;;;;1.77;0.80;;;12.10;99.90;;;;;;4995078;28;20181;-67
2021/12/13 12:37:56;;;;;;;2.57;0.50;;;12.20;99.90;;;;;;4995161;28;20175;-68
2021/12/13 12:40:27;;;;;;;2.70;0.60;;;12.30;99.90;;;;;;4995206;28;20179;-68
2021/12/13 12:42:58;;;;;;;2.17;0.40;;;12.40;99.90;;;;;;4987780;28;20191;-68
2021/12/13 12:45:41;;;;;;;1.60;0.57;;;12.40;99.90;;;;;;5014441;28;20182;-68
2021/12/13 12:48:18;;;;;;;0.67;0.47;;;12.40;99.90;;;;;;5014558;28;20166;-67
2021/12/13 12:50:59;;;;;;;2.40;0.60;;;12.30;99.90;;;;;;5014586;28;20214;-68
2021/12/13 12:53:37;;;;;;;4.03;0.70;;;12.30;99.90;;;;;;5014323;28;20218;-68
2021/12/13 12:56:18;;;;;;;1.20;0.50;;;12.30;99.90;;;;;;5014379;28;20254;-68
2021/12/13 12:59:05;;;;;;;1.97;0.67;;;12.30;99.90;;;;;;5014316;28;20641;-68
2021/12/13 13:01:53;;;;;;;2.63;0.90;;;12.30;99.90;;;;;;5014170;28;20171;-67
2021/12/13 13:04:21;;;;;;;3.03;0.70;;;12.30;99.90;;;;;;5013886;28;20178;-68
2021/12/13 13:07:08;;;;;;;1.43;0.60;;;12.30;99.90;;;;;;5014189;28;20170;-68
2021/12/13 13:09:42;;;;;;;3.10;0.80;;;12.40;99.90;;;;;;5014047;28;20197;-68
2021/12/13 13:12:10;;;;;;;2.93;1.10;;;12.30;99.90;;;;;;5014089;28;20240;-67
2021/12/13 13:14:45;;;;;;;1.63;0.90;;;12.40;99.90;;;;;;5013817;28;20260;-68
2021/12/13 13:17:10;;;;;;;0.50;0.40;;;12.50;99.90;;;;;;5013878;28;20253;-68
2021/12/13 13:19:41;;;;;;;3.70;0.60;;;12.60;99.90;;;;;;5013947;28;20253;-68
2021/12/13 13:22:24;;;;;;;3.70;0.70;;;12.60;99.90;;;;;;5013901;28;20229;-68
2021/12/13 13:24:53;;;;;;;2.37;0.60;;;12.50;99.90;;;;;;5013784;28;20221;-68
2021/12/13 13:27:22;;;;;;;7.33;0.80;;;12.60;99.90;;;;;;5013345;28;20174;-68
2021/12/13 13:29:48;;;;;;;1.57;0.80;;;12.50;99.90;;;;;;5013525;28;20733;-67
2021/12/13 13:32:15;;;;;;;4.43;0.90;;;12.60;99.90;;;;;;5013637;28;20167;-68
2021/12/13 13:34:53;;;;;;;2.63;0.80;;;12.60;99.90;;;;;;5013282;28;20619;-68
2021/12/13 13:37:30;;;;;;;2.13;0.70;;;12.50;99.90;;;;;;5012587;28;20179;-68
2021/12/13 13:40:30;;;;;;;1.40;0.57;;;12.40;99.90;;;;;;5013131;28;20205;-68
2021/12/13 13:43:03;;;;;;;5.97;0.70;;;12.40;99.90;;;;;;5013264;28;20177;-68
2021/12/13 13:45:35;;;;;;;0.90;0.60;;;12.40;99.90;;;;;;5011819;28;20269;-68